SWA1311 KIND-KMDW
Flight info
| Callsign | SWA1311 |
|---|---|
| Flight time | 0h 37m |
| Altitude | 23000 |
| Route | MEARZ7 MEARZ CLLRK DROSE FISSK7 |
| Aircraft | B736/M-SDE2E3FGHIRWXY/LB1 |
Departure
| Time | 2026-05-07 01:03 |
|---|---|
| Airport | Indianapolis International Airport (KIND) |
Arrival
| Time | 2026-05-07 01:41 |
|---|---|
| Airport | Chicago Midway International Airport (KMDW) |
| Time | Latitude | Longitude | Altitude | Speed | Heading |
|---|---|---|---|---|---|
| 2026-05-07 00:45 | 39.71651 | -86.29325 | 789 ft | 0 kts | 218° |
| 2026-05-07 00:49 | 39.71659 | -86.29317 | 789 ft | 2 kts | 218° |
| 2026-05-07 00:50 | 39.71671 | -86.29304 | 789 ft | 2 kts | 218° |
| 2026-05-07 00:50 | 39.71684 | -86.29291 | 789 ft | 2 kts | 217° |
| 2026-05-07 00:50 | 39.71697 | -86.29278 | 789 ft | 2 kts | 217° |
| 2026-05-07 00:50 | 39.71702 | -86.29273 | 789 ft | 0 kts | 217° |
| 2026-05-07 00:54 | 39.71728 | -86.29333 | 788 ft | 14 kts | 335° |
| 2026-05-07 00:54 | 39.71812 | -86.29360 | 788 ft | 4 kts | 15° |
| 2026-05-07 00:54 | 39.71815 | -86.29358 | 788 ft | 0 kts | 17° |
| 2026-05-07 00:55 | 39.71829 | -86.29348 | 788 ft | 6 kts | 34° |
| 2026-05-07 00:56 | 39.71883 | -86.29290 | 789 ft | 14 kts | 46° |
| 2026-05-07 00:56 | 39.71967 | -86.29315 | 788 ft | 16 kts | 314° |
| 2026-05-07 00:56 | 39.72042 | -86.29416 | 786 ft | 16 kts | 314° |
| 2026-05-07 00:56 | 39.72120 | -86.29518 | 784 ft | 16 kts | 314° |
| 2026-05-07 00:57 | 39.72197 | -86.29621 | 782 ft | 17 kts | 314° |
| 2026-05-07 00:57 | 39.72275 | -86.29693 | 780 ft | 12 kts | 4° |
| 2026-05-07 00:57 | 39.72333 | -86.29624 | 781 ft | 11 kts | 44° |
| 2026-05-07 00:57 | 39.72389 | -86.29553 | 782 ft | 11 kts | 43° |
| 2026-05-07 00:58 | 39.72445 | -86.29484 | 781 ft | 11 kts | 43° |
| 2026-05-07 00:58 | 39.72500 | -86.29414 | 782 ft | 11 kts | 45° |
| 2026-05-07 00:58 | 39.72556 | -86.29340 | 785 ft | 13 kts | 44° |
| 2026-05-07 00:58 | 39.72636 | -86.29238 | 788 ft | 19 kts | 45° |
| 2026-05-07 00:59 | 39.72740 | -86.29192 | 791 ft | 0 kts | 319° |
| 2026-05-07 00:59 | 39.72741 | -86.29195 | 791 ft | 0 kts | 314° |
| 2026-05-07 01:02 | 39.72749 | -86.29205 | 785 ft | 5 kts | 314° |
| 2026-05-07 01:02 | 39.72793 | -86.29266 | 790 ft | 11 kts | 303° |
| 2026-05-07 01:02 | 39.72775 | -86.29366 | 787 ft | 13 kts | 225° |
| 2026-05-07 01:03 | 39.72575 | -86.29621 | 780 ft | 87 kts | 224° |
| 2026-05-07 01:03 | 39.71938 | -86.30431 | 827 ft | 165 kts | 225° |
| 2026-05-07 01:03 | 39.71122 | -86.31534 | 1955 ft | 162 kts | 231° |
| 2026-05-07 01:03 | 39.70397 | -86.32581 | 3292 ft | 152 kts | 232° |
| 2026-05-07 01:04 | 39.69664 | -86.33671 | 4074 ft | 176 kts | 231° |
| 2026-05-07 01:04 | 39.68754 | -86.34998 | 4470 ft | 216 kts | 230° |
| 2026-05-07 01:04 | 39.67677 | -86.36571 | 4923 ft | 250 kts | 237° |
| 2026-05-07 01:04 | 39.67223 | -86.38736 | 5950 ft | 251 kts | 275° |
| 2026-05-07 01:05 | 39.67797 | -86.40848 | 7284 ft | 251 kts | 303° |
| 2026-05-07 01:05 | 39.69112 | -86.42350 | 8540 ft | 258 kts | 329° |
| 2026-05-07 01:05 | 39.70890 | -86.42908 | 9734 ft | 273 kts | 353° |
| 2026-05-07 01:05 | 39.72839 | -86.42547 | 10621 ft | 297 kts | 7° |
| 2026-05-07 01:06 | 39.74899 | -86.41716 | 10936 ft | 331 kts | 12° |
| 2026-05-07 01:06 | 39.77124 | -86.40676 | 11663 ft | 346 kts | 13° |
| 2026-05-07 01:06 | 39.79420 | -86.39594 | 12492 ft | 355 kts | 12° |
| 2026-05-07 01:06 | 39.81763 | -86.38521 | 12918 ft | 358 kts | 11° |
| 2026-05-07 01:07 | 39.84131 | -86.37470 | 13008 ft | 360 kts | 10° |
| 2026-05-07 01:07 | 39.86501 | -86.36442 | 13015 ft | 359 kts | 10° |
| 2026-05-07 01:07 | 39.88589 | -86.35549 | 13020 ft | 359 kts | 10° |
| 2026-05-07 01:07 | 39.90974 | -86.34537 | 13202 ft | 365 kts | 9° |
| 2026-05-07 01:08 | 39.93412 | -86.33506 | 14131 ft | 369 kts | 9° |
| 2026-05-07 01:08 | 39.95874 | -86.32461 | 15022 ft | 374 kts | 9° |
| 2026-05-07 01:08 | 39.98377 | -86.31400 | 15830 ft | 382 kts | 8° |
| 2026-05-07 01:08 | 40.00930 | -86.30286 | 16615 ft | 392 kts | 9° |
| 2026-05-07 01:09 | 40.03523 | -86.29073 | 17419 ft | 400 kts | 10° |
| 2026-05-07 01:09 | 40.06165 | -86.27807 | 18228 ft | 408 kts | 10° |
| 2026-05-07 01:09 | 40.07943 | -86.26954 | 18701 ft | 413 kts | 10° |
| 2026-05-07 01:09 | 40.10663 | -86.25657 | 19446 ft | 418 kts | 9° |
| 2026-05-07 01:10 | 40.13416 | -86.24354 | 20215 ft | 423 kts | 8° |
| 2026-05-07 01:10 | 40.16205 | -86.23038 | 20981 ft | 428 kts | 8° |
| 2026-05-07 01:10 | 40.19023 | -86.21719 | 21735 ft | 434 kts | 7° |
| 2026-05-07 01:10 | 40.21884 | -86.20382 | 22470 ft | 439 kts | 7° |
| 2026-05-07 01:11 | 40.24775 | -86.19028 | 22999 ft | 441 kts | 6° |
| 2026-05-07 01:11 | 40.27693 | -86.17660 | 23044 ft | 449 kts | 7° |
| 2026-05-07 01:11 | 40.30656 | -86.16269 | 23055 ft | 454 kts | 7° |
| 2026-05-07 01:11 | 40.33585 | -86.14883 | 23048 ft | 452 kts | 7° |
| 2026-05-07 01:12 | 40.36542 | -86.13479 | 23049 ft | 451 kts | 7° |
| 2026-05-07 01:12 | 40.39494 | -86.12081 | 23047 ft | 452 kts | 7° |
| 2026-05-07 01:12 | 40.42507 | -86.10667 | 23065 ft | 468 kts | 8° |
| 2026-05-07 01:12 | 40.45628 | -86.09202 | 23051 ft | 483 kts | 8° |
| 2026-05-07 01:13 | 40.48822 | -86.07690 | 23057 ft | 491 kts | 9° |
| 2026-05-07 01:13 | 40.52033 | -86.06196 | 23038 ft | 484 kts | 6° |
| 2026-05-07 01:13 | 40.55252 | -86.05515 | 23045 ft | 455 kts | 349° |
| 2026-05-07 01:13 | 40.58397 | -86.05536 | 23043 ft | 452 kts | 347° |
| 2026-05-07 01:14 | 40.61489 | -86.05553 | 22999 ft | 434 kts | 348° |
| 2026-05-07 01:14 | 40.64437 | -86.05516 | 22998 ft | 415 kts | 348° |
| 2026-05-07 01:14 | 40.67296 | -86.05457 | 23004 ft | 408 kts | 348° |
| 2026-05-07 01:14 | 40.70130 | -86.05398 | 23027 ft | 408 kts | 348° |
| 2026-05-07 01:15 | 40.72986 | -86.05342 | 22660 ft | 412 kts | 349° |
| 2026-05-07 01:15 | 40.75839 | -86.05276 | 22128 ft | 408 kts | 349° |
| 2026-05-07 01:15 | 40.78656 | -86.05205 | 21600 ft | 402 kts | 349° |
| 2026-05-07 01:15 | 40.81432 | -86.05137 | 21061 ft | 396 kts | 350° |
| 2026-05-07 01:16 | 40.84164 | -86.05072 | 20539 ft | 390 kts | 350° |
| 2026-05-07 01:16 | 40.86829 | -86.05012 | 20032 ft | 385 kts | 351° |
| 2026-05-07 01:16 | 40.89496 | -86.04951 | 19522 ft | 381 kts | 351° |
| 2026-05-07 01:16 | 40.92095 | -86.05128 | 18992 ft | 363 kts | 337° |
| 2026-05-07 01:17 | 40.94337 | -86.06331 | 18528 ft | 337 kts | 318° |
| 2026-05-07 01:17 | 40.96079 | -86.08281 | 17778 ft | 326 kts | 304° |
| 2026-05-07 01:17 | 40.97373 | -86.10671 | 17195 ft | 314 kts | 292° |
| 2026-05-07 01:17 | 40.98169 | -86.13310 | 16656 ft | 306 kts | 284° |
| 2026-05-07 01:18 | 40.98787 | -86.15983 | 16157 ft | 301 kts | 282° |
| 2026-05-07 01:18 | 40.99365 | -86.18624 | 15659 ft | 297 kts | 282° |
| 2026-05-07 01:18 | 40.99938 | -86.21242 | 15165 ft | 295 kts | 282° |
| 2026-05-07 01:18 | 41.00514 | -86.23836 | 14699 ft | 292 kts | 283° |
| 2026-05-07 01:19 | 41.01089 | -86.26398 | 14218 ft | 289 kts | 283° |
| 2026-05-07 01:19 | 41.01664 | -86.28945 | 13736 ft | 287 kts | 283° |
| 2026-05-07 01:19 | 41.02230 | -86.31439 | 13229 ft | 285 kts | 283° |
| 2026-05-07 01:19 | 41.02799 | -86.33942 | 12762 ft | 282 kts | 284° |
| 2026-05-07 01:20 | 41.03363 | -86.36422 | 12280 ft | 280 kts | 284° |
| 2026-05-07 01:20 | 41.03923 | -86.38889 | 11803 ft | 279 kts | 284° |
| 2026-05-07 01:20 | 41.04482 | -86.41357 | 11330 ft | 282 kts | 284° |
| 2026-05-07 01:20 | 41.05107 | -86.43848 | 11013 ft | 286 kts | 291° |
| 2026-05-07 01:21 | 41.06008 | -86.46231 | 10869 ft | 294 kts | 296° |
| 2026-05-07 01:21 | 41.07018 | -86.48611 | 10717 ft | 298 kts | 297° |
| 2026-05-07 01:21 | 41.08043 | -86.51012 | 10566 ft | 299 kts | 296° |
| 2026-05-07 01:21 | 41.09040 | -86.53385 | 10404 ft | 289 kts | 296° |
| 2026-05-07 01:22 | 41.09983 | -86.55669 | 10264 ft | 276 kts | 296° |
| 2026-05-07 01:22 | 41.10878 | -86.57855 | 10126 ft | 264 kts | 296° |
| 2026-05-07 01:22 | 41.11733 | -86.59952 | 10007 ft | 253 kts | 296° |
| 2026-05-07 01:22 | 41.12613 | -86.61930 | 9876 ft | 247 kts | 306° |
| 2026-05-07 01:23 | 41.13854 | -86.63509 | 9776 ft | 248 kts | 315° |
| 2026-05-07 01:23 | 41.15169 | -86.64998 | 9653 ft | 250 kts | 315° |
| 2026-05-07 01:23 | 41.16499 | -86.66499 | 9534 ft | 252 kts | 315° |
| 2026-05-07 01:23 | 41.17845 | -86.68021 | 9410 ft | 255 kts | 315° |
| 2026-05-07 01:24 | 41.19181 | -86.69538 | 9291 ft | 256 kts | 315° |
| 2026-05-07 01:24 | 41.20535 | -86.71078 | 9156 ft | 256 kts | 315° |
| 2026-05-07 01:24 | 41.21885 | -86.72619 | 9025 ft | 256 kts | 315° |
| 2026-05-07 01:24 | 41.23231 | -86.74158 | 8899 ft | 256 kts | 315° |
| 2026-05-07 01:25 | 41.24581 | -86.75703 | 8779 ft | 255 kts | 316° |
| 2026-05-07 01:25 | 41.25927 | -86.77246 | 8656 ft | 255 kts | 316° |
| 2026-05-07 01:25 | 41.27271 | -86.78787 | 8533 ft | 255 kts | 316° |
| 2026-05-07 01:25 | 41.28617 | -86.80333 | 8415 ft | 255 kts | 316° |
| 2026-05-07 01:26 | 41.29961 | -86.81877 | 8285 ft | 255 kts | 316° |
| 2026-05-07 01:26 | 41.31304 | -86.83421 | 8172 ft | 255 kts | 316° |
| 2026-05-07 01:26 | 41.32649 | -86.84970 | 8048 ft | 255 kts | 316° |
| 2026-05-07 01:26 | 41.33989 | -86.86513 | 7927 ft | 253 kts | 316° |
| 2026-05-07 01:27 | 41.35313 | -86.88036 | 7809 ft | 249 kts | 316° |
| 2026-05-07 01:27 | 41.36612 | -86.89533 | 7691 ft | 246 kts | 316° |
| 2026-05-07 01:27 | 41.37890 | -86.91006 | 7589 ft | 246 kts | 316° |
| 2026-05-07 01:27 | 41.39188 | -86.92504 | 7471 ft | 247 kts | 316° |
| 2026-05-07 01:28 | 41.40480 | -86.94016 | 7356 ft | 248 kts | 315° |
| 2026-05-07 01:28 | 41.41754 | -86.95564 | 7238 ft | 248 kts | 315° |
| 2026-05-07 01:28 | 41.43029 | -86.97122 | 7123 ft | 249 kts | 315° |
| 2026-05-07 01:28 | 41.44308 | -86.98683 | 6995 ft | 249 kts | 315° |
| 2026-05-07 01:29 | 41.45575 | -87.00264 | 6881 ft | 248 kts | 310° |
| 2026-05-07 01:29 | 41.46480 | -87.02201 | 6771 ft | 245 kts | 295° |
| 2026-05-07 01:29 | 41.47233 | -87.04245 | 6647 ft | 245 kts | 295° |
| 2026-05-07 01:29 | 41.47987 | -87.06275 | 6533 ft | 244 kts | 296° |
| 2026-05-07 01:30 | 41.48746 | -87.08299 | 6417 ft | 244 kts | 296° |
| 2026-05-07 01:30 | 41.49505 | -87.10314 | 6296 ft | 243 kts | 296° |
| 2026-05-07 01:30 | 41.50252 | -87.12293 | 6175 ft | 242 kts | 296° |
| 2026-05-07 01:30 | 41.51006 | -87.14291 | 6048 ft | 240 kts | 296° |
| 2026-05-07 01:31 | 41.51741 | -87.16279 | 5995 ft | 238 kts | 294° |
| 2026-05-07 01:31 | 41.52370 | -87.18321 | 5995 ft | 237 kts | 291° |
| 2026-05-07 01:31 | 41.52966 | -87.20380 | 5992 ft | 238 kts | 291° |
| 2026-05-07 01:31 | 41.53562 | -87.22445 | 5992 ft | 239 kts | 291° |
| 2026-05-07 01:32 | 41.54161 | -87.24513 | 5991 ft | 239 kts | 291° |
| 2026-05-07 01:32 | 41.54762 | -87.26580 | 6001 ft | 239 kts | 291° |
| 2026-05-07 01:32 | 41.55365 | -87.28644 | 6003 ft | 239 kts | 291° |
| 2026-05-07 01:32 | 41.55962 | -87.30683 | 6004 ft | 239 kts | 291° |
| 2026-05-07 01:33 | 41.56569 | -87.32752 | 6002 ft | 239 kts | 291° |
| 2026-05-07 01:33 | 41.57172 | -87.34814 | 6003 ft | 239 kts | 291° |
| 2026-05-07 01:33 | 41.57777 | -87.36881 | 6006 ft | 238 kts | 291° |
| 2026-05-07 01:33 | 41.58381 | -87.38946 | 5947 ft | 240 kts | 291° |
| 2026-05-07 01:34 | 41.58994 | -87.41039 | 5791 ft | 242 kts | 291° |
| 2026-05-07 01:34 | 41.59604 | -87.43126 | 5641 ft | 240 kts | 291° |
| 2026-05-07 01:34 | 41.60206 | -87.45185 | 5492 ft | 236 kts | 291° |
| 2026-05-07 01:34 | 41.60801 | -87.47222 | 5356 ft | 235 kts | 291° |
| 2026-05-07 01:35 | 41.61388 | -87.49234 | 5220 ft | 235 kts | 291° |
| 2026-05-07 01:35 | 41.61984 | -87.51278 | 5071 ft | 236 kts | 291° |
| 2026-05-07 01:35 | 41.62758 | -87.53212 | 4804 ft | 241 kts | 310° |
| 2026-05-07 01:35 | 41.63934 | -87.54770 | 4663 ft | 233 kts | 316° |
| 2026-05-07 01:36 | 41.65089 | -87.56267 | 4390 ft | 230 kts | 314° |
| 2026-05-07 01:36 | 41.66198 | -87.57802 | 4098 ft | 227 kts | 313° |
| 2026-05-07 01:36 | 41.67259 | -87.59304 | 3784 ft | 215 kts | 312° |
| 2026-05-07 01:36 | 41.68245 | -87.60700 | 3491 ft | 198 kts | 312° |
| 2026-05-07 01:37 | 41.69161 | -87.61996 | 3236 ft | 186 kts | 312° |
| 2026-05-07 01:37 | 41.70018 | -87.63207 | 2981 ft | 173 kts | 312° |
| 2026-05-07 01:37 | 41.70819 | -87.64340 | 2747 ft | 162 kts | 312° |
| 2026-05-07 01:37 | 41.71569 | -87.65400 | 2525 ft | 149 kts | 312° |
| 2026-05-07 01:38 | 41.72230 | -87.66333 | 2349 ft | 129 kts | 312° |
| 2026-05-07 01:38 | 41.72815 | -87.67159 | 2173 ft | 119 kts | 311° |
| 2026-05-07 01:38 | 41.73385 | -87.67964 | 1982 ft | 119 kts | 311° |
| 2026-05-07 01:38 | 41.73944 | -87.68754 | 1833 ft | 117 kts | 311° |
| 2026-05-07 01:39 | 41.74510 | -87.69555 | 1664 ft | 119 kts | 312° |
| 2026-05-07 01:39 | 41.75082 | -87.70364 | 1497 ft | 120 kts | 312° |
| 2026-05-07 01:39 | 41.75659 | -87.71176 | 1325 ft | 121 kts | 312° |
| 2026-05-07 01:39 | 41.76242 | -87.71998 | 1154 ft | 122 kts | 311° |
| 2026-05-07 01:40 | 41.76820 | -87.72820 | 1004 ft | 119 kts | 311° |
| 2026-05-07 01:40 | 41.77384 | -87.73615 | 841 ft | 118 kts | 313° |
| 2026-05-07 01:40 | 41.77950 | -87.74410 | 697 ft | 118 kts | 313° |
| 2026-05-07 01:40 | 41.78494 | -87.75176 | 620 ft | 99 kts | 313° |
| 2026-05-07 01:41 | 41.78770 | -87.75562 | 617 ft | 19 kts | 313° |
| 2026-05-07 01:41 | 41.78859 | -87.75688 | 620 ft | 18 kts | 313° |
| 2026-05-07 01:41 | 41.78963 | -87.75775 | 628 ft | 18 kts | 347° |
| 2026-05-07 01:41 | 41.79079 | -87.75819 | 621 ft | 17 kts | 359° |
| 2026-05-07 01:42 | 41.79129 | -87.75721 | 616 ft | 15 kts | 99° |
| 2026-05-07 01:42 | 41.79127 | -87.75587 | 616 ft | 14 kts | 88° |
| 2026-05-07 01:42 | 41.79131 | -87.75459 | 616 ft | 13 kts | 88° |
| 2026-05-07 01:42 | 41.79133 | -87.75337 | 615 ft | 13 kts | 89° |
| 2026-05-07 01:43 | 41.79132 | -87.75218 | 615 ft | 13 kts | 91° |
| 2026-05-07 01:43 | 41.79134 | -87.75102 | 615 ft | 12 kts | 87° |
| 2026-05-07 01:43 | 41.79136 | -87.74989 | 625 ft | 12 kts | 90° |
| 2026-05-07 01:43 | 41.79130 | -87.74880 | 614 ft | 12 kts | 83° |
| 2026-05-07 01:44 | 41.79138 | -87.74773 | 612 ft | 11 kts | 90° |
| 2026-05-07 01:44 | 41.79142 | -87.74668 | 613 ft | 11 kts | 85° |
| 2026-05-07 01:44 | 41.79112 | -87.74579 | 617 ft | 11 kts | 133° |
| 2026-05-07 01:44 | 41.79061 | -87.74508 | 617 ft | 10 kts | 137° |
| 2026-05-07 01:45 | 41.79011 | -87.74441 | 624 ft | 10 kts | 140° |
| 2026-05-07 01:45 | 41.78950 | -87.74464 | 620 ft | 10 kts | 223° |
| 2026-05-07 01:45 | 41.78899 | -87.74522 | 623 ft | 10 kts | 200° |
| 2026-05-07 01:45 | 41.78838 | -87.74504 | 621 ft | 10 kts | 130° |
| 2026-05-07 01:46 | 41.78810 | -87.74458 | 618 ft | 0 kts | 130° |